createdAt,value
2022-11-05T00:01:16.114Z,5.39
2022-11-05T00:04:17.580Z,5.37
2022-11-05T00:07:25.803Z,5.29
2022-11-05T00:10:30.196Z,5.26
2022-11-05T00:13:31.564Z,5.24
2022-11-05T00:16:32.897Z,5.16
2022-11-05T00:19:34.226Z,5.14
2022-11-05T00:22:35.719Z,5.08
2022-11-05T00:25:37.044Z,5.02
2022-11-05T00:28:40.158Z,4.97
2022-11-05T00:31:41.498Z,4.91
2022-11-05T00:34:43.091Z,4.91
2022-11-05T00:37:49.836Z,4.94
2022-11-05T00:40:51.834Z,4.92
2022-11-05T00:43:53.172Z,4.91
2022-11-05T00:46:59.633Z,4.93
2022-11-05T00:50:01.316Z,4.88
2022-11-05T00:53:03.434Z,4.88
2022-11-05T00:56:04.864Z,4.87
2022-11-05T00:59:06.210Z,4.86
2022-11-05T01:02:07.725Z,4.86
2022-11-05T01:05:09.138Z,4.85
2022-11-05T01:08:11.937Z,4.80
2022-11-05T01:11:15.842Z,4.77
2022-11-05T01:14:17.197Z,4.76
2022-11-05T01:17:18.547Z,4.75
2022-11-05T01:20:19.907Z,4.71
2022-11-05T01:23:21.553Z,4.66
2022-11-05T01:26:23.180Z,4.66
2022-11-05T01:29:24.574Z,4.63
2022-11-05T01:32:25.952Z,4.60
2022-11-05T01:35:27.288Z,4.58
2022-11-05T01:38:28.620Z,4.56
2022-11-05T01:41:30.292Z,4.56
2022-11-05T01:44:53.245Z,4.52
2022-11-05T01:47:57.663Z,4.53
2022-11-05T01:51:02.652Z,4.52
2022-11-05T01:54:09.744Z,4.53
2022-11-05T01:57:11.609Z,4.51
2022-11-05T02:00:13.464Z,4.49
2022-11-05T02:03:17.793Z,4.48
2022-11-05T02:06:19.705Z,4.43
2022-11-05T02:09:30.704Z,4.42
2022-11-05T02:12:33.402Z,4.43
2022-11-05T02:16:19.654Z,4.41
2022-11-05T02:19:55.175Z,4.42
2022-11-05T02:23:25.836Z,4.43
2022-11-05T02:26:45.089Z,4.41
2022-11-05T02:30:05.420Z,4.36
2022-11-05T02:33:15.378Z,4.35
2022-11-05T02:36:42.059Z,4.34
2022-11-05T02:40:08.310Z,4.35
2022-11-05T02:43:53.630Z,4.35
2022-11-05T02:47:18.298Z,4.34
2022-11-05T02:50:30.247Z,4.37
2022-11-05T02:53:41.659Z,4.39
2022-11-05T02:56:48.043Z,4.35
2022-11-05T02:59:49.370Z,4.33
2022-11-05T03:02:50.897Z,4.35
2022-11-05T03:06:27.048Z,4.31
2022-11-05T03:09:43.607Z,4.24
2022-11-05T03:12:54.749Z,4.21
2022-11-05T03:16:04.502Z,4.20
2022-11-05T03:19:20.200Z,4.17
2022-11-05T03:22:28.415Z,4.13
2022-11-05T03:25:30.951Z,4.08
2022-11-05T03:28:36.413Z,4.02
2022-11-05T03:31:40.834Z,3.92
2022-11-05T03:34:47.017Z,3.87
2022-11-05T03:37:51.181Z,3.85
2022-11-05T03:40:56.880Z,3.85
2022-11-05T03:44:03.564Z,3.83
2022-11-05T03:47:10.337Z,3.85
2022-11-05T03:50:20.370Z,3.85
2022-11-05T03:53:27.844Z,3.85
2022-11-05T03:56:34.061Z,3.85
2022-11-05T03:59:44.821Z,3.86
2022-11-05T04:02:46.318Z,3.85
2022-11-05T04:05:48.185Z,3.85
2022-11-05T04:08:49.533Z,3.81
2022-11-05T04:11:50.933Z,3.81
2022-11-05T04:14:52.289Z,3.80
2022-11-05T04:17:53.602Z,3.77
2022-11-05T04:20:54.930Z,3.74
2022-11-05T04:23:56.341Z,3.73
2022-11-05T04:26:57.662Z,3.71
2022-11-05T04:29:59.066Z,3.65
2022-11-05T04:33:07.012Z,3.54
2022-11-05T04:36:08.586Z,3.51
2022-11-05T04:39:10.067Z,3.45
2022-11-05T04:42:11.391Z,3.44
2022-11-05T04:45:12.791Z,3.46
2022-11-05T04:48:14.126Z,3.50
2022-11-05T04:51:15.497Z,3.52
2022-11-05T04:54:16.831Z,3.49
2022-11-05T04:57:18.210Z,3.47
2022-11-05T05:00:21.347Z,3.48
2022-11-05T05:03:22.655Z,3.49
2022-11-05T05:06:24.016Z,3.46
2022-11-05T05:09:25.366Z,3.41
2022-11-05T05:12:26.697Z,3.38
2022-11-05T05:15:28.033Z,3.36
2022-11-05T05:18:29.373Z,3.34
2022-11-05T05:21:30.703Z,3.35
2022-11-05T05:24:32.039Z,3.36
2022-11-05T05:27:33.401Z,3.35
2022-11-05T05:30:34.763Z,3.35
2022-11-05T05:33:36.164Z,3.34
2022-11-05T05:36:37.737Z,3.34
2022-11-05T05:39:39.077Z,3.32
2022-11-05T05:42:43.326Z,3.32
2022-11-05T05:45:45.009Z,3.31
2022-11-05T05:48:51.130Z,3.32
2022-11-05T05:51:52.460Z,3.31
2022-11-05T05:54:53.789Z,3.28
2022-11-05T05:57:55.142Z,3.27
2022-11-05T06:01:00.581Z,3.28
2022-11-05T06:04:02.172Z,3.31
2022-11-05T06:07:03.557Z,3.31
2022-11-05T06:10:05.477Z,3.32
2022-11-05T06:13:06.845Z,3.34
2022-11-05T06:16:09.524Z,3.39
2022-11-05T06:19:10.946Z,3.43
2022-11-05T06:22:12.422Z,3.45
2022-11-05T06:25:13.894Z,3.45
2022-11-05T06:28:15.236Z,3.47
2022-11-05T06:31:17.166Z,3.46
2022-11-05T06:34:18.529Z,3.45
2022-11-05T06:37:19.874Z,3.44
2022-11-05T06:40:21.216Z,3.45
2022-11-05T06:43:22.585Z,3.46
2022-11-05T06:46:23.921Z,3.48
2022-11-05T06:49:25.268Z,3.50
2022-11-05T06:52:26.626Z,3.53
2022-11-05T06:55:30.150Z,3.56
2022-11-05T06:58:31.980Z,3.49
2022-11-05T07:01:33.466Z,3.61
2022-11-05T07:04:34.894Z,3.68
2022-11-05T07:07:40.839Z,3.77
2022-11-05T07:10:42.257Z,3.81
2022-11-05T07:13:43.591Z,3.88
2022-11-05T07:16:45.043Z,3.96
2022-11-05T07:19:46.384Z,4.04
2022-11-05T07:22:47.762Z,4.09
2022-11-05T07:25:49.093Z,4.16
2022-11-05T07:28:50.436Z,4.23
2022-11-05T07:31:51.805Z,4.32
2022-11-05T07:34:53.152Z,4.41
2022-11-05T07:37:55.315Z,4.51
2022-11-05T07:40:59.342Z,4.58
2022-11-05T07:44:00.729Z,4.68
2022-11-05T07:47:02.068Z,4.77
2022-11-05T07:50:03.690Z,4.85
2022-11-05T07:53:12.612Z,4.93
2022-11-05T07:56:15.214Z,4.99
2022-11-05T07:59:16.534Z,5.06
2022-11-05T08:02:18.032Z,5.16
2022-11-05T08:05:19.462Z,5.24
2022-11-05T08:08:20.840Z,5.33
2022-11-05T08:11:22.197Z,5.38
2022-11-05T08:14:23.578Z,5.43
2022-11-05T08:17:24.937Z,5.51
2022-11-05T08:20:26.556Z,5.65
2022-11-05T08:23:29.282Z,5.78
2022-11-05T08:26:30.637Z,5.88
2022-11-05T08:29:31.996Z,6.04
2022-11-05T08:32:34.030Z,6.20
2022-11-05T08:35:37.157Z,6.33
2022-11-05T08:38:38.464Z,6.46
2022-11-05T08:41:40.053Z,6.62
2022-11-05T08:44:41.439Z,6.76
2022-11-05T08:47:42.899Z,6.91
2022-11-05T08:50:46.008Z,7.07
2022-11-05T08:53:47.361Z,7.24
2022-11-05T08:56:48.734Z,7.40
2022-11-05T08:59:50.274Z,7.55
2022-11-05T09:02:51.612Z,7.74
2022-11-05T09:05:52.930Z,7.90
2022-11-05T09:08:54.515Z,8.03
2022-11-05T09:12:11.656Z,8.18
2022-11-05T09:15:13.438Z,8.33
2022-11-05T09:18:14.909Z,8.49
2022-11-05T09:21:17.106Z,8.63
2022-11-05T09:24:18.622Z,8.77
2022-11-05T09:27:19.962Z,8.97
2022-11-05T09:30:21.298Z,9.08
2022-11-05T09:33:24.880Z,9.20
2022-11-05T09:36:26.211Z,9.33
2022-11-05T09:39:27.614Z,9.38
2022-11-05T09:42:34.604Z,9.48
2022-11-05T09:45:36.146Z,9.53
2022-11-05T09:48:38.579Z,9.69
2022-11-05T09:51:40.766Z,9.79
2022-11-05T09:54:42.353Z,9.75
2022-11-05T09:57:48.957Z,9.70
2022-11-05T10:00:50.666Z,9.92
2022-11-05T10:03:56.672Z,9.80
2022-11-05T10:07:01.508Z,9.82
2022-11-05T10:10:06.770Z,9.71
2022-11-05T10:13:29.693Z,9.83
2022-11-05T10:16:41.044Z,10.11
2022-11-05T10:20:00.185Z,10.41
2022-11-05T10:23:21.925Z,10.49
2022-11-05T10:26:26.246Z,10.62
2022-11-05T10:29:30.260Z,10.69
2022-11-05T10:32:35.726Z,10.72
2022-11-05T10:35:47.295Z,10.71
2022-11-05T10:38:49.417Z,10.61
2022-11-05T10:42:14.889Z,10.33
2022-11-05T10:45:31.604Z,10.00
2022-11-05T10:49:12.032Z,9.68
2022-11-05T10:52:26.398Z,9.59
2022-11-05T10:55:34.699Z,9.95
2022-11-05T10:58:36.040Z,10.26
2022-11-05T11:01:37.604Z,10.53
2022-11-05T11:04:39.762Z,10.56
2022-11-05T11:07:41.130Z,10.61
2022-11-05T11:10:49.939Z,10.77
2022-11-05T11:14:19.485Z,10.83
2022-11-05T11:17:27.505Z,10.92
2022-11-05T11:20:31.286Z,11.00
2022-11-05T11:23:40.932Z,10.99
2022-11-05T11:26:42.384Z,10.98
2022-11-05T11:29:49.526Z,10.81
2022-11-05T11:33:05.700Z,10.50
2022-11-05T11:36:10.614Z,10.46
2022-11-05T11:39:18.778Z,10.40
2022-11-05T11:42:39.297Z,10.62
2022-11-05T11:45:50.911Z,10.91
2022-11-05T11:48:52.297Z,11.07
2022-11-05T11:52:04.993Z,11.25
2022-11-05T11:55:09.344Z,11.38
2022-11-05T11:58:11.143Z,11.37
2022-11-05T12:01:24.717Z,11.36
2022-11-05T12:04:26.009Z,11.32
2022-11-05T12:07:42.625Z,11.43
2022-11-05T12:10:52.954Z,11.44
2022-11-05T12:14:27.974Z,11.48
2022-11-05T12:17:49.859Z,11.45
2022-11-05T12:20:58.463Z,11.65
2022-11-05T12:24:18.298Z,11.73
2022-11-05T12:27:32.443Z,11.66
2022-11-05T12:30:47.104Z,11.51
2022-11-05T12:33:54.964Z,11.51
2022-11-05T12:37:30.120Z,11.52
2022-11-05T12:40:34.183Z,11.53
2022-11-05T12:43:44.603Z,11.55
2022-11-05T12:47:03.271Z,11.54
2022-11-05T12:50:29.639Z,11.46
2022-11-05T12:53:52.144Z,11.49
2022-11-05T12:56:57.804Z,11.38
2022-11-05T13:00:21.670Z,11.19
2022-11-05T13:03:44.211Z,11.23
2022-11-05T13:06:52.228Z,11.21
2022-11-05T13:10:06.129Z,11.25
2022-11-05T13:13:19.072Z,11.26
2022-11-05T13:16:49.040Z,11.27
2022-11-05T13:19:56.369Z,11.23
2022-11-05T13:23:17.928Z,11.19
2022-11-05T13:26:37.454Z,11.13
2022-11-05T13:29:48.431Z,11.17
2022-11-05T13:32:59.881Z,11.11
2022-11-05T13:36:19.856Z,11.02
2022-11-05T13:39:26.789Z,11.02
2022-11-05T13:42:37.141Z,10.98
2022-11-05T13:46:05.420Z,10.97
2022-11-05T13:49:43.769Z,10.87
2022-11-05T13:52:57.166Z,10.82
2022-11-05T13:56:13.295Z,10.84
2022-11-05T13:59:33.895Z,10.85
2022-11-05T14:02:40.321Z,10.77
2022-11-05T14:05:43.192Z,10.73
2022-11-05T14:08:46.040Z,10.60
2022-11-05T14:11:56.463Z,10.54
2022-11-05T14:15:17.681Z,10.50
2022-11-05T14:18:38.066Z,10.54
2022-11-05T14:21:48.703Z,10.62
2022-11-05T14:24:50.129Z,10.65
2022-11-05T14:27:52.603Z,10.64
2022-11-05T14:30:54.074Z,10.59
2022-11-05T14:34:03.491Z,10.53
2022-11-05T14:37:33.187Z,10.45
2022-11-05T14:40:43.335Z,10.36
2022-11-05T14:43:58.107Z,10.22
2022-11-05T14:47:19.894Z,10.18
2022-11-05T14:50:33.386Z,10.13
2022-11-05T14:53:37.799Z,10.07
2022-11-05T14:56:56.081Z,9.93
2022-11-05T14:59:58.072Z,9.78
2022-11-05T15:03:24.556Z,9.68
2022-11-05T15:06:27.793Z,9.63
2022-11-05T15:09:29.064Z,9.56
2022-11-05T15:12:47.464Z,9.57
2022-11-05T15:15:49.746Z,9.51
2022-11-05T15:18:53.793Z,9.51
2022-11-05T15:21:58.760Z,9.42
2022-11-05T15:25:00.377Z,9.37
2022-11-05T15:28:14.485Z,9.36
2022-11-05T15:31:15.826Z,9.34
2022-11-05T15:34:31.718Z,9.29
2022-11-05T15:37:33.826Z,9.26
2022-11-05T15:40:35.280Z,9.22
2022-11-05T15:43:48.077Z,9.20
2022-11-05T15:47:04.941Z,9.11
2022-11-05T15:50:15.367Z,9.09
2022-11-05T15:53:44.190Z,9.10
2022-11-05T15:56:49.847Z,9.06
2022-11-05T15:59:51.606Z,9.05
2022-11-05T16:03:15.527Z,9.03
2022-11-05T16:06:17.178Z,8.98
2022-11-05T16:09:22.889Z,8.95
2022-11-05T16:12:35.955Z,8.89
2022-11-05T16:15:37.346Z,8.82
2022-11-05T16:18:39.048Z,8.79
2022-11-05T16:21:53.896Z,8.74
2022-11-05T16:24:55.241Z,8.72
2022-11-05T16:27:58.305Z,8.69
2022-11-05T16:31:03.027Z,8.65
2022-11-05T16:34:05.063Z,8.64
2022-11-05T16:37:10.500Z,8.65
2022-11-05T16:40:21.023Z,8.62
2022-11-05T16:43:24.609Z,8.63
2022-11-05T16:46:28.269Z,8.61
2022-11-05T16:49:29.629Z,8.58
2022-11-05T16:52:30.938Z,8.57
2022-11-05T16:55:33.457Z,8.56
2022-11-05T16:58:34.824Z,8.51
2022-11-05T17:01:39.160Z,8.50
2022-11-05T17:04:40.634Z,8.44
2022-11-05T17:07:42.142Z,8.42
2022-11-05T17:10:43.653Z,8.37
2022-11-05T17:13:45.576Z,8.32
2022-11-05T17:16:47.022Z,8.31
2022-11-05T17:19:48.391Z,8.26
2022-11-05T17:22:49.769Z,8.21
2022-11-05T17:25:54.069Z,8.16
2022-11-05T17:28:55.415Z,8.11
2022-11-05T17:31:56.775Z,8.08
2022-11-05T17:34:58.134Z,8.06
2022-11-05T17:37:59.491Z,8.04
2022-11-05T17:41:01.068Z,8.01
2022-11-05T17:44:02.477Z,8.05
2022-11-05T17:47:03.893Z,8.09
2022-11-05T17:50:06.983Z,8.15
2022-11-05T17:53:08.916Z,8.17
2022-11-05T17:56:22.167Z,8.23
2022-11-05T17:59:29.433Z,8.26
2022-11-05T18:02:30.875Z,8.28
2022-11-05T18:05:34.383Z,8.32
2022-11-05T18:08:35.860Z,8.32
2022-11-05T18:11:38.780Z,8.32
2022-11-05T18:14:40.099Z,8.29
2022-11-05T18:17:42.768Z,8.28
2022-11-05T18:20:44.338Z,8.28
2022-11-05T18:23:45.785Z,8.28
2022-11-05T18:26:47.540Z,8.26
2022-11-05T18:29:48.875Z,8.24
2022-11-05T18:32:50.270Z,8.21
2022-11-05T18:35:51.678Z,8.16
2022-11-05T18:38:54.013Z,8.11
2022-11-05T18:41:55.449Z,8.08
2022-11-05T18:44:56.785Z,8.05
2022-11-05T18:47:59.902Z,8.03
2022-11-05T18:51:07.301Z,8.00
2022-11-05T18:54:08.746Z,7.98
2022-11-05T18:57:10.203Z,7.97
2022-11-05T19:00:12.240Z,7.96
2022-11-05T19:03:13.585Z,7.95
2022-11-05T19:06:14.951Z,7.96
2022-11-05T19:09:16.362Z,7.96
2022-11-05T19:12:17.732Z,7.94
2022-11-05T19:15:19.217Z,7.93
2022-11-05T19:18:20.631Z,7.94
2022-11-05T19:21:25.004Z,7.95
2022-11-05T19:24:26.480Z,7.94
2022-11-05T19:27:27.914Z,7.93
2022-11-05T19:30:29.471Z,7.94
2022-11-05T19:33:31.758Z,7.94
2022-11-05T19:36:33.519Z,7.93
2022-11-05T19:39:35.762Z,7.93
2022-11-05T19:42:37.143Z,7.94
2022-11-05T19:45:44.775Z,7.93
2022-11-05T19:48:46.589Z,7.92
2022-11-05T19:51:47.940Z,7.89
2022-11-05T19:54:49.278Z,7.87
2022-11-05T19:57:50.632Z,7.86
2022-11-05T20:00:55.232Z,7.86
2022-11-05T20:03:58.257Z,7.81
2022-11-05T20:06:59.681Z,7.80
2022-11-05T20:10:01.272Z,7.79
2022-11-05T20:13:02.646Z,7.81
2022-11-05T20:16:04.949Z,7.79
2022-11-05T20:19:08.810Z,7.80
2022-11-05T20:22:10.155Z,7.79
2022-11-05T20:25:12.401Z,7.79
2022-11-05T20:28:14.184Z,7.78
2022-11-05T20:31:17.233Z,7.78
2022-11-05T20:34:18.567Z,7.75
2022-11-05T20:37:19.962Z,7.75
2022-11-05T20:40:21.393Z,7.74
2022-11-05T20:43:27.588Z,7.72
2022-11-05T20:46:31.586Z,7.70
2022-11-05T20:49:32.995Z,7.67
2022-11-05T20:52:34.325Z,7.67
2022-11-05T20:55:46.798Z,7.66
2022-11-05T20:58:48.699Z,7.65
2022-11-05T21:01:50.696Z,7.67
2022-11-05T21:04:52.154Z,7.64
2022-11-05T21:07:53.588Z,7.63
2022-11-05T21:10:56.272Z,7.66
2022-11-05T21:13:57.617Z,7.66
2022-11-05T21:16:58.954Z,7.69
2022-11-05T21:20:00.291Z,7.70
2022-11-05T21:23:01.667Z,7.71
2022-11-05T21:26:08.263Z,7.71
2022-11-05T21:29:09.640Z,7.71
2022-11-05T21:32:11.032Z,7.71
2022-11-05T21:35:12.419Z,7.69
2022-11-05T21:38:16.440Z,7.69
2022-11-05T21:41:17.976Z,7.66
2022-11-05T21:44:19.364Z,7.65
2022-11-05T21:47:20.772Z,7.62
2022-11-05T21:50:22.666Z,7.59
2022-11-05T21:53:24.484Z,7.58
2022-11-05T21:56:26.693Z,7.55
2022-11-05T21:59:28.557Z,7.50
2022-11-05T22:02:30.052Z,7.46
2022-11-05T22:05:31.673Z,7.45
2022-11-05T22:08:33.020Z,7.43
2022-11-05T22:11:35.788Z,7.42
2022-11-05T22:14:37.678Z,7.40
2022-11-05T22:17:42.636Z,7.43
2022-11-05T22:20:47.874Z,7.41
2022-11-05T22:23:49.281Z,7.40
2022-11-05T22:26:50.783Z,7.39
2022-11-05T22:29:52.154Z,7.37
2022-11-05T22:32:53.562Z,7.37
2022-11-05T22:35:54.919Z,7.35
2022-11-05T22:38:56.274Z,7.37
2022-11-05T22:41:58.459Z,7.38
2022-11-05T22:44:59.855Z,7.38
2022-11-05T22:48:06.397Z,7.39
2022-11-05T22:51:13.108Z,7.41
2022-11-05T22:54:14.482Z,7.43
2022-11-05T22:57:15.847Z,7.42
2022-11-05T23:00:17.547Z,7.39
2022-11-05T23:03:18.935Z,7.38
2022-11-05T23:06:31.819Z,7.33
2022-11-05T23:09:35.147Z,7.28
2022-11-05T23:12:36.766Z,7.10
2022-11-05T23:15:38.083Z,7.26
2022-11-05T23:18:39.520Z,7.33
2022-11-05T23:21:40.887Z,7.37
2022-11-05T23:24:42.388Z,7.37
2022-11-05T23:27:44.996Z,7.40
2022-11-05T23:30:46.485Z,7.43
2022-11-05T23:33:48.665Z,7.44
2022-11-05T23:36:50.048Z,7.45
2022-11-05T23:39:51.489Z,7.46
2022-11-05T23:42:53.419Z,7.46
2022-11-05T23:45:58.483Z,7.49
2022-11-05T23:48:59.828Z,7.50
2022-11-05T23:52:01.197Z,7.50
2022-11-05T23:55:02.821Z,7.54
2022-11-05T23:58:04.186Z,7.55
